D/T METAR WX W/SPE G/SPE TEMP DEWP FEEL
31/01/23 12:20 EGPB 311220Z 30028G42KT 8000 -SHRA SCT014CB BKN030 04/02 Q0996 TEMPO SHRA -SHRA 32.2mph 48.3mph 4°C 2°C 2.4°C
30/01/23 12:50 EGPB 301250Z 32025KT 9999 VCSH FEW026CB BKN036 04/M02 Q1014 VCSH 28.8mph 4°C -2°C 1.4°C
30/01/23 11:50 EGPB 301150Z 32021G31KT 9999 VCSH SCT024CB BKN037 04/M01 Q1013 VCSH 24.2mph 35.7mph 4°C -1°C 1.6°C
30/01/23 10:20 EGPB 301020Z 32023G34KT 9999 VCSH FEW020 BKN035 04/M02 Q1012 TEMPO SHRASN VCSH 26.5mph 39.1mph 4°C -2°C 1.4°C
30/01/23 09:50 EGPB 300950Z 32022G32KT 9999 VCSH FEW020 BKN034 04/M02 Q1011 TEMPO SHRASN VCSH 25.3mph 36.8mph 4°C -2°C 1.4°C
30/01/23 07:50 EGPB 300750Z 32027G37KT 9999 VCSH FEW032 BKN041 04/M03 Q1009 TEMPO SHRA VCSH 31.1mph 42.6mph 4°C -3°C 1.2°C
09/01/23 06:20 EGPB 090620Z 23015KT 9999 FEW045 08/04 Q0979 TEMPO SHRA 17.3mph 8°C 4°C 7.0°C
09/01/23 05:50 EGPB 090550Z AUTO 23014KT 9999 SCT017/// 07/05 Q0978 16.1mph 7°C 5°C 6.3°C
09/01/23 05:20 EGPB 090520Z AUTO 23015KT 9999 FEW014/// SCT036/// 08/04 Q0978 17.3mph 8°C 4°C 7.0°C
09/01/23 04:50 EGPB 090450Z 22013KT 9999 SCT014 SCT044 07/05 Q0978 TEMPO BKN012 15.0mph 7°C 5°C 6.3°C
09/01/23 04:20 EGPB 090420Z 21010KT 9999 SCT012 07/04 Q0978 TEMPO BKN012 11.5mph 7°C 4°C 6.0°C
09/01/23 03:50 EGPB 090350Z 21010KT 9999 FEW014 SCT028 07/04 Q0978 11.5mph 7°C 4°C 6.0°C
09/01/23 03:20 EGPB 090320Z 22014KT 9999 FEW014 SCT028 07/04 Q0978 16.1mph 7°C 4°C 6.0°C
09/01/23 02:50 EGPB 090250Z 22012KT 9999 FEW014 BKN030 07/04 Q0978 13.8mph 7°C 4°C 6.0°C
09/01/23 02:20 EGPB 090220Z 22009KT 9999 FEW012 BKN032 07/04 Q0977 10.4mph 7°C 4°C 6.0°C
09/01/23 01:20 EGPB 090120Z 21012KT 9999 FEW020 SCT036 07/03 Q0977 13.8mph 7°C 3°C 5.7°C
09/01/23 00:50 EGPB 090050Z 20015KT 9999 FEW022 SCT036 07/03 Q0977 17.3mph 7°C 3°C 5.7°C
09/01/23 00:20 EGPB 090020Z 20015KT 9999 FEW022 SCT036 07/03 Q0977 17.3mph 7°C 3°C 5.7°C
08/01/23 23:50 EGPB 082350Z 19018KT 9999 BKN022 08/03 Q0977 TEMPO SHRA 20.7mph 8°C 3°C 6.7°C
08/01/23 23:20 EGPB 082320Z 19019KT 9999 SCT024 08/03 Q0977 TEMPO SHRA 21.9mph 8°C 3°C 6.7°C
08/01/23 22:50 EGPB 082250Z 19017G27KT 9999 SCT024 08/03 Q0977 19.6mph 31.1mph 8°C 3°C 6.7°C
08/01/23 22:20 EGPB 082220Z AUTO 19021KT 9999 BKN025/// BKN038/// 08/03 Q0977 24.2mph 8°C 3°C 6.7°C
08/01/23 21:50 EGPB 082150Z AUTO 19022KT 9999 OVC021/// 08/03 Q0977 25.3mph 8°C 3°C 6.7°C
08/01/23 20:20 EGPB 082020Z 19025KT 9999 SCT024 08/03 Q0976 28.8mph 8°C 3°C 6.7°C
08/01/23 19:20 EGPB 081920Z 19025G36KT 9999 SCT027 08/03 Q0976 28.8mph 41.4mph 8°C 3°C 6.7°C
08/01/23 18:50 EGPB 081850Z 19025G38KT 9999 SCT024 08/03 Q0976 28.8mph 43.7mph 8°C 3°C 6.7°C
08/01/23 18:20 EGPB 081820Z 19024G37KT 9999 SCT023 08/04 Q0976 27.6mph 42.6mph 8°C 4°C 7.0°C
08/01/23 17:50 EGPB 081750Z 19026G36KT 9999 SCT024 08/03 Q0976 29.9mph 41.4mph 8°C 3°C 6.7°C
08/01/23 17:20 EGPB 081720Z 19026G38KT 9999 SCT020 08/04 Q0976 29.9mph 43.7mph 8°C 4°C 7.0°C
08/01/23 16:50 EGPB 081650Z 19026G37KT 9999 BKN022 08/04 Q0976 29.9mph 42.6mph 8°C 4°C 7.0°C
08/01/23 15:50 EGPB 081550Z 19027G39KT 9999 SCT021 08/04 Q0976 31.1mph 44.9mph 8°C 4°C 7.0°C
08/01/23 15:20 EGPB 081520Z 19028G42KT 9999 FEW024 08/03 Q0976 32.2mph 48.3mph 8°C 3°C 6.7°C
08/01/23 14:20 EGPB 081420Z 19029G42KT 9999 FEW025 08/03 Q0976 33.4mph 48.3mph 8°C 3°C 6.7°C
08/01/23 13:50 EGPB 081350Z 19032G45KT 9999 FEW027 08/02 Q0976 36.8mph 51.8mph 8°C 2°C 6.4°C
08/01/23 13:20 EGPB 081320Z 19027G39KT 9999 FEW026 08/03 Q0976 31.1mph 44.9mph 8°C 3°C 6.7°C
08/01/23 12:50 EGPB 081250Z 19027KT 9999 FEW027 08/03 Q0976 31.1mph 8°C 3°C 6.7°C
08/01/23 12:20 EGPB 081220Z 19026G43KT 9999 SCT025 08/03 Q0976 29.9mph 49.5mph 8°C 3°C 6.7°C
08/01/23 11:50 EGPB 081150Z 19026G36KT 9999 SCT024 08/03 Q0976 NOSIG 29.9mph 41.4mph 8°C 3°C 6.7°C
08/01/23 11:20 EGPB 081120Z 18023G36KT 9999 FEW028 08/04 Q0976 26.5mph 41.4mph 8°C 4°C 7.0°C
08/01/23 10:50 EGPB 081050Z 19023G36KT 9999 FEW029 08/04 Q0977 26.5mph 41.4mph 8°C 4°C 7.0°C
08/01/23 10:20 EGPB 081020Z 19024KT 9999 FEW027 08/04 Q0977 27.6mph 8°C 4°C 7.0°C
08/01/23 09:50 EGPB 080950Z AUTO 19023KT 9999 NCD 08/04 Q0976 26.5mph 8°C 4°C 7.0°C
08/01/23 09:20 EGPB 080920Z AUTO 19024G34KT 9999 FEW024/// SCT036/// 08/04 Q0976 27.6mph 39.1mph 8°C 4°C 7.0°C
08/01/23 08:50 EGPB 080850Z AUTO 21021KT 9999 FEW031/// 08/03 Q0976 24.2mph 8°C 3°C 6.7°C
08/01/23 08:20 EGPB 080820Z AUTO 21020KT 9999 NCD 08/04 Q0976 23.0mph 8°C 4°C 7.0°C
08/01/23 07:50 EGPB 080750Z AUTO 21021KT 9999 NCD 08/04 Q0976 24.2mph 8°C 4°C 7.0°C
08/01/23 07:20 EGPB 080720Z AUTO 21020G30KT 9999 NCD 08/04 Q0975 23.0mph 34.5mph 8°C 4°C 7.0°C
08/01/23 06:50 EGPB 080650Z AUTO 20022KT 9999 FEW023/// 08/05 Q0975 25.3mph 8°C 5°C 7.3°C
08/01/23 06:20 EGPB 080620Z AUTO 20019KT 9999 FEW023/// 08/05 Q0975 21.9mph 8°C 5°C 7.3°C
08/01/23 05:50 EGPB 080550Z AUTO 20017KT 9999 FEW022/// 08/05 Q0975 19.6mph 8°C 5°C 7.3°C
08/01/23 05:20 EGPB 080520Z AUTO 20020KT 9999 BKN019/// 08/05 Q0975 23.0mph 8°C 5°C 7.3°C
08/01/23 04:50 EGPB 080450Z AUTO 19024KT 9999 OVC019/// 08/05 Q0975 27.6mph 8°C 5°C 7.3°C
08/01/23 04:20 EGPB 080420Z AUTO 18021KT 9999 BKN019/// 08/05 Q0975 24.2mph 8°C 5°C 7.3°C
08/01/23 03:50 EGPB 080350Z AUTO 18019G31KT 9999 BKN018/// 08/05 Q0975 21.9mph 35.7mph 8°C 5°C 7.3°C
08/01/23 03:20 EGPB 080320Z AUTO 18022G33KT 9999 BKN019/// 08/05 Q0976 25.3mph 38.0mph 8°C 5°C 7.3°C
08/01/23 02:50 EGPB 080250Z AUTO 18022KT 9999 BKN019/// 09/05 Q0976 25.3mph 9°C 5°C 8.3°C
08/01/23 02:20 EGPB 080220Z AUTO 18022KT 9999 BKN018/// OVC033/// 09/05 Q0977 25.3mph 9°C 5°C 8.3°C
08/01/23 01:50 EGPB 080150Z AUTO 18020G30KT 9999 BKN019/// 09/05 Q0977 23.0mph 34.5mph 9°C 5°C 8.3°C
08/01/23 01:20 EGPB 080120Z AUTO 17017KT 9999 SCT019/// 08/05 Q0977 19.6mph 8°C 5°C 7.3°C
08/01/23 00:20 EGPB 080020Z AUTO 18019G29KT 9999 FEW020/// 08/05 Q0978 21.9mph 33.4mph 8°C 5°C 7.3°C
07/01/23 23:50 EGPB 072350Z AUTO 18018KT 9999 SCT021/// 08/05 Q0978 20.7mph 8°C 5°C 7.3°C
07/01/23 23:20 EGPB 072320Z AUTO 19022KT 9999 BKN021/// 08/05 Q0978 25.3mph 8°C 5°C 7.3°C
07/01/23 22:50 EGPB 072250Z AUTO 19021KT 9999 BKN019/// 09/05 Q0979 24.2mph 9°C 5°C 8.3°C
07/01/23 22:20 EGPB 072220Z AUTO 19018KT 9999 BKN019/// 08/05 Q0979 20.7mph 8°C 5°C 7.3°C
07/01/23 21:50 EGPB 072150Z AUTO 19020KT 9999 BKN018/// 08/05 Q0979 23.0mph 8°C 5°C 7.3°C
07/01/23 21:20 EGPB 072120Z AUTO 19020KT 9999 NCD 08/05 Q0979 23.0mph 8°C 5°C 7.3°C
07/01/23 20:50 EGPB 072050Z AUTO 20017KT 9999 SCT014/// 08/05 Q0980 19.6mph 8°C 5°C 7.3°C
07/01/23 20:20 EGPB 072020Z AUTO 20017KT 9999 OVC013/// 08/06 Q0980 19.6mph 8°C 6°C 7.6°C
07/01/23 19:50 EGPB 071950Z AUTO 20015KT 9999 SCT013/// BKN026/// 08/06 Q0980 17.3mph 8°C 6°C 7.6°C
07/01/23 19:20 EGPB 071920Z AUTO 20016KT 9999 SCT008/// OVC020/// 09/07 Q0980 18.4mph 9°C 7°C 9.0°C
07/01/23 18:20 EGPB 071820Z AUTO 19011KT 9999 BKN006/// 08/07 Q0980 12.7mph 8°C 7°C 8.0°C
07/01/23 17:20 EGPB 071720Z 20009KT 9999 SCT006 BKN012 08/07 Q0980 TEMPO BKN009 10.4mph 8°C 7°C 8.0°C
07/01/23 16:50 EGPB 071650Z 19009KT 9999 SCT006 BKN015 08/07 Q0980 TEMPO BKN012 10.4mph 8°C 7°C 8.0°C
07/01/23 16:20 EGPB 071620Z 19006KT 9999 FEW005 SCT015 09/08 Q0980 TEMPO BKN012 6.9mph 9°C 8°C 9.4°C
07/01/23 16:20 EGPB 071620Z 19006KT 9999 FEW005 SCT015 09/08 Q0980 6.9mph 9°C 8°C 9.4°C
07/01/23 15:50 EGPB 071550Z 19010KT 9000 -RA SCT005 BKN014 09/08 Q0981 -RA 11.5mph 9°C 8°C 9.4°C
07/01/23 15:20 EGPB 071520Z 19010KT 9000 -RA SCT005 BKN014 09/08 Q0982 TEMPO BKN008 -RA 11.5mph 9°C 8°C 9.4°C
07/01/23 14:50 EGPB 071450Z 18009KT 9000 -RA SCT005 BKN014 09/08 Q0982 TEMPO RA BKN005 -RA 10.4mph 9°C 8°C 9.4°C
07/01/23 13:50 EGPB 071350Z 19006KT 9000 SCT007 BKN012 09/08 Q0983 TEMPO BKN007 6.9mph 9°C 8°C 9.4°C
07/01/23 13:20 EGPB 071320Z 20007KT 9000 FEW007 BKN015 09/08 Q0983 8.1mph 9°C 8°C 9.4°C
07/01/23 12:50 EGPB 071250Z 20008KT 9000 VCSH FEW007 SCT015 09/08 Q0984 TEMPO BKN014 VCSH 9.2mph 9°C 8°C 9.4°C
07/01/23 12:20 EGPB 071220Z 20010KT 9999 VCSH FEW006 SCT015 09/08 Q0984 VCSH 11.5mph 9°C 8°C 9.4°C
07/01/23 11:50 EGPB 071150Z 20010KT 9000 VCSH FEW006 SCT014 09/08 Q0984 VCSH 11.5mph 9°C 8°C 9.4°C
07/01/23 11:20 EGPB 071120Z 20010KT 9999 VCSH FEW005 SCT008 BKN015 09/08 Q0985 VCSH 11.5mph 9°C 8°C 9.4°C
07/01/23 10:20 EGPB 071020Z 19010KT 9999 -RA SCT006 SCT015 09/08 Q0985 TEMPO BKN008 -RA 11.5mph 9°C 8°C 9.4°C
07/01/23 09:50 EGPB 070950Z 18012KT 9000 VCSH SCT006 OVC014 09/08 Q0986 TEMPO BKN008 VCSH 13.8mph 9°C 8°C 9.4°C
07/01/23 08:50 EGPB 070850Z 16013KT 8000 -RA SCT007 BKN011 09/08 Q0987 RERA TEMPO 4000 RADZ BKN008 -RA 15.0mph 9°C 8°C 9.4°C
07/01/23 08:20 EGPB 070820Z 16020KT 5000 -RA SCT006 BKN010 09/08 Q0987 RERA TEMPO 4000 RADZ BKN006 -RA 23.0mph 9°C 8°C 9.4°C
07/01/23 07:50 EGPB 070750Z 16016G27KT 7000 -RA SCT007 BKN015 09/08 Q0988 RERA TEMPO 4000 RADZ BKN008 -RA 18.4mph 31.1mph 9°C 8°C 9.4°C
07/01/23 07:20 EGPB 070720Z 15017KT 9000 -RA SCT008 BKN017 09/07 Q0989 RERA TEMPO 4000 RADZ BKN008 -RA 19.6mph 9°C 7°C 9.0°C
07/01/23 06:20 EGPB 070620Z 15022KT 9999 SHRA SCT009 BKN020 08/07 Q0990 TEMPO 4000 RADZ BKN009 SHRA 25.3mph 8°C 7°C 8.0°C
07/01/23 05:50 EGPB 070550Z AUTO 15021KT 9999 BKN009/// OVC036/// 08/07 Q0991 24.2mph 8°C 7°C 8.0°C
07/01/23 05:20 EGPB 070520Z AUTO 15018KT 9999 BKN009/// BKN019/// OVC045/// 08/06 Q0991 20.7mph 8°C 6°C 7.6°C
07/01/23 04:50 EGPB 070450Z AUTO 16015KT 9999 BKN011/// BKN044/// 08/06 Q0992 17.3mph 8°C 6°C 7.6°C
07/01/23 04:20 EGPB 070420Z AUTO 16014KT 9999 BKN011/// 08/06 Q0993 16.1mph 8°C 6°C 7.6°C
07/01/23 03:50 EGPB 070350Z AUTO 16015KT 9999 BKN013/// 08/06 Q0994 17.3mph 8°C 6°C 7.6°C